sim
Sign-in with your pilot id or email,
or register
Callsign
Passwort

Schedule Details

Flight Number: EWG1700 (2)
Departure: Munich Airport (EDDM) at 11:05
Arrival: Thessaloniki International Airport (LGTS) at 13:05
Route: Eurowings Passenger Schedule. Enter filed route here before submitting Pirep.

Weather Information
Getting current METAR information for EDDM 252150Z 17006KT CAVOK 17/03 Q1009 NOSIG
Getting current METAR information for LGTS 252150Z 00000KT CAVOK 15/12 Q1020 NOSIG

Schedule Frequency

Route Map